Time;durP1;ratioP1;P1;durP2;ratioP2;P2;SDS_P1;SDS_P2;PMS_P1;PMS_P2;Temp;Humidity;BMP_temperature;BMP_pressure;BME280_temperature;BME280_humidity;BME280_pressure;Samples;Min_cycle;Max_cycle;Signal;HPM_P1;HPM_P2
2022/03/31 00:00:44;;;;;;;4.32;2.30;;;4.20;71.10;;;;;;602646;235;26657;-70
2022/03/31 00:03:13;;;;;;;3.45;2.70;;;4.20;66.30;;;;;;596664;239;26653;-70
2022/03/31 00:05:39;;;;;;;3.10;2.20;;;4.10;66.10;;;;;;598741;239;26922;-69
2022/03/31 00:08:06;;;;;;;2.22;2.12;;;4.20;67.50;;;;;;594005;240;26610;-69
2022/03/31 00:10:34;;;;;;;3.15;2.40;;;4.20;67.10;;;;;;591122;240;26854;-69
2022/03/31 00:13:01;;;;;;;3.42;2.45;;;4.20;66.90;;;;;;592778;240;26697;-69
2022/03/31 00:15:29;;;;;;;2.95;2.47;;;4.20;63.60;;;;;;591646;242;27002;-71
2022/03/31 00:17:56;;;;;;;3.30;2.33;;;4.20;64.90;;;;;;591976;239;26654;-67
2022/03/31 00:20:23;;;;;;;5.57;2.60;;;4.10;66.20;;;;;;609110;231;26889;-69
2022/03/31 00:22:51;;;;;;;6.40;2.90;;;4.00;65.20;;;;;;603738;235;26584;-68
2022/03/31 00:25:19;;;;;;;3.17;2.15;;;3.90;66.40;;;;;;608923;235;26700;-68
2022/03/31 00:27:47;;;;;;;6.95;2.72;;;3.90;65.10;;;;;;604758;238;26579;-68
2022/03/31 00:30:14;;;;;;;2.70;2.47;;;3.90;65.30;;;;;;602539;235;26881;-68
2022/03/31 00:32:41;;;;;;;3.53;2.50;;;3.80;64.70;;;;;;604275;237;26603;-68
2022/03/31 00:35:08;;;;;;;5.00;2.47;;;3.80;64.10;;;;;;608241;234;26879;-68
2022/03/31 00:37:36;;;;;;;2.60;2.40;;;3.80;70.00;;;;;;604609;236;26836;-68
2022/03/31 00:40:04;;;;;;;5.05;2.67;;;3.70;70.10;;;;;;602054;236;26655;-68
2022/03/31 00:42:32;;;;;;;2.97;2.45;;;3.60;67.60;;;;;;604664;236;26570;-69
2022/03/31 00:44:59;;;;;;;2.55;2.25;;;3.60;66.90;;;;;;602545;237;26888;-69
2022/03/31 00:47:27;;;;;;;2.92;2.53;;;3.50;68.60;;;;;;606821;236;26620;-68
2022/03/31 00:49:54;;;;;;;2.55;2.35;;;3.50;69.00;;;;;;605603;235;26786;-69
2022/03/31 00:52:21;;;;;;;3.58;2.60;;;3.40;67.00;;;;;;604289;235;26587;-68
2022/03/31 00:54:48;;;;;;;5.03;2.37;;;3.50;65.70;;;;;;603473;234;26598;-69
2022/03/31 00:57:16;;;;;;;6.40;2.30;;;3.40;66.40;;;;;;608563;236;26640;-69
2022/03/31 00:59:44;;;;;;;3.55;2.37;;;3.20;69.00;;;;;;610046;235;26613;-68
2022/03/31 01:02:12;;;;;;;3.70;2.22;;;3.20;69.00;;;;;;602442;235;26856;-69
2022/03/31 01:04:38;;;;;;;2.47;2.28;;;3.20;67.40;;;;;;602885;237;26632;-68
2022/03/31 01:07:06;;;;;;;2.53;2.00;;;3.20;70.70;;;;;;602657;237;26923;-68
2022/03/31 01:09:34;;;;;;;2.72;2.40;;;3.20;67.10;;;;;;602907;235;26662;-68
2022/03/31 01:12:02;;;;;;;4.53;2.50;;;3.10;65.80;;;;;;603142;237;26578;-68
2022/03/31 01:14:30;;;;;;;2.42;2.33;;;3.10;68.40;;;;;;605665;236;26564;-68
2022/03/31 01:16:58;;;;;;;3.25;2.60;;;3.00;70.90;;;;;;606732;235;26597;-68
2022/03/31 01:19:25;;;;;;;2.17;2.08;;;3.00;71.00;;;;;;604840;235;26578;-68
2022/03/31 01:21:52;;;;;;;2.40;2.20;;;3.00;67.00;;;;;;604994;238;26590;-68
2022/03/31 01:24:19;;;;;;;2.58;2.28;;;3.00;64.50;;;;;;606949;236;26806;-68
2022/03/31 01:26:47;;;;;;;2.70;2.50;;;2.90;65.90;;;;;;603628;234;26601;-68
2022/03/31 01:29:14;;;;;;;2.55;2.35;;;2.90;66.70;;;;;;604831;238;26600;-68
2022/03/31 01:31:42;;;;;;;2.47;2.28;;;2.80;64.90;;;;;;610118;235;26866;-68
2022/03/31 01:34:09;;;;;;;2.92;2.62;;;2.90;66.00;;;;;;609908;235;26627;-69
2022/03/31 01:36:36;;;;;;;2.50;2.30;;;2.80;66.00;;;;;;606394;235;26576;-69
2022/03/31 01:39:04;;;;;;;4.90;2.53;;;2.80;67.80;;;;;;605064;235;26595;-68
2022/03/31 01:41:31;;;;;;;3.35;2.25;;;2.70;67.80;;;;;;605556;235;26590;-68
2022/03/31 01:43:58;;;;;;;3.47;2.50;;;2.80;66.60;;;;;;609741;235;26847;-68
2022/03/31 01:46:26;;;;;;;2.35;2.15;;;2.70;65.30;;;;;;606194;235;26613;-69
2022/03/31 01:48:55;;;;;;;3.42;2.58;;;2.70;70.90;;;;;;604410;238;26586;-68
2022/03/31 01:51:21;;;;;;;2.67;2.20;;;2.70;71.00;;;;;;604533;238;26594;-68
2022/03/31 01:53:49;;;;;;;2.70;2.50;;;2.60;68.30;;;;;;604437;236;26550;-69
2022/03/31 01:56:16;;;;;;;2.00;1.90;;;2.60;67.70;;;;;;604419;237;26869;-69
2022/03/31 01:58:43;;;;;;;3.65;2.35;;;2.60;68.90;;;;;;604500;237;26583;-68
2022/03/31 02:01:10;;;;;;;2.55;2.03;;;2.50;65.50;;;;;;604201;237;26585;-68
2022/03/31 02:03:38;;;;;;;2.28;2.08;;;2.60;67.60;;;;;;604489;238;26594;-68
2022/03/31 02:06:06;;;;;;;3.30;2.17;;;2.50;68.10;;;;;;602519;236;26641;-68
2022/03/31 02:08:34;;;;;;;2.65;2.45;;;2.50;67.40;;;;;;607403;230;26836;-68
2022/03/31 02:11:02;;;;;;;2.45;2.25;;;2.50;66.50;;;;;;601524;238;26630;-68
2022/03/31 02:13:30;;;;;;;3.40;2.00;;;2.40;68.10;;;;;;601516;238;26651;-68
2022/03/31 02:15:57;;;;;;;4.00;2.28;;;2.40;67.90;;;;;;605192;235;26609;-68
2022/03/31 02:18:25;;;;;;;3.17;2.15;;;2.40;69.20;;;;;;605742;235;26637;-68
2022/03/31 02:20:51;;;;;;;2.75;2.40;;;2.40;66.80;;;;;;605227;236;27285;-68
2022/03/31 02:23:19;;;;;;;2.22;2.00;;;2.40;65.10;;;;;;608753;235;26628;-68
2022/03/31 02:25:46;;;;;;;2.20;2.00;;;2.30;66.00;;;;;;608259;234;26605;-68
2022/03/31 02:28:14;;;;;;;2.75;2.12;;;2.30;67.40;;;;;;605150;237;26655;-68
2022/03/31 02:30:42;;;;;;;3.15;2.37;;;2.20;68.20;;;;;;605000;236;26634;-68
2022/03/31 02:33:09;;;;;;;2.40;2.20;;;2.20;68.20;;;;;;609570;236;26848;-68
2022/03/31 02:35:36;;;;;;;2.50;2.30;;;2.10;70.10;;;;;;609884;235;26654;-67
2022/03/31 02:38:04;;;;;;;2.53;2.15;;;2.20;65.70;;;;;;602556;235;26586;-67
2022/03/31 02:40:32;;;;;;;2.30;2.10;;;2.10;69.50;;;;;;604401;236;26595;-69
2022/03/31 02:43:00;;;;;;;2.65;2.45;;;2.10;68.50;;;;;;607029;236;26589;-68
2022/03/31 02:45:27;;;;;;;2.60;2.22;;;2.10;68.50;;;;;;611685;234;26798;-67
2022/03/31 02:47:55;;;;;;;2.75;2.55;;;2.20;73.50;;;;;;604154;236;26611;-67
2022/03/31 02:50:23;;;;;;;2.92;2.30;;;2.10;68.30;;;;;;603500;235;26818;-68
2022/03/31 02:55:24;;;;;;;5.22;2.42;;;2.10;70.10;;;;;;601537;238;26657;-68
2022/03/31 02:57:52;;;;;;;2.90;2.35;;;2.00;68.60;;;;;;606615;234;26993;-69
2022/03/31 03:00:20;;;;;;;3.20;2.20;;;2.00;67.70;;;;;;601589;237;26883;-69
2022/03/31 03:02:47;;;;;;;3.58;2.50;;;2.00;68.60;;;;;;601556;237;26648;-68
2022/03/31 03:05:14;;;;;;;2.22;2.03;;;2.00;68.50;;;;;;601710;237;27203;-68
2022/03/31 03:07:42;;;;;;;2.20;2.00;;;1.90;72.60;;;;;;607761;232;26640;-68
2022/03/31 03:10:10;;;;;;;2.37;2.17;;;1.90;67.50;;;;;;603752;235;26681;-68
2022/03/31 03:12:37;;;;;;;2.50;2.20;;;1.90;67.40;;;;;;602039;235;26861;-68
2022/03/31 03:15:05;;;;;;;2.47;2.20;;;2.00;72.30;;;;;;609970;235;26636;-68
2022/03/31 03:17:33;;;;;;;2.53;2.33;;;1.90;67.70;;;;;;603345;236;26643;-69
2022/03/31 03:20:01;;;;;;;17.12;2.55;;;1.90;67.60;;;;;;604564;236;26582;-70
2022/03/31 03:22:28;;;;;;;5.22;2.35;;;1.90;68.40;;;;;;602380;238;26633;-70
2022/03/31 03:24:56;;;;;;;2.40;2.20;;;1.80;68.30;;;;;;608348;232;26862;-71
2022/03/31 03:27:24;;;;;;;2.33;2.12;;;1.80;68.50;;;;;;602712;237;26644;-70
2022/03/31 03:29:51;;;;;;;2.60;1.83;;;1.80;66.30;;;;;;603133;234;26640;-70
2022/03/31 03:32:18;;;;;;;3.78;2.42;;;1.80;66.70;;;;;;603270;237;26630;-70
2022/03/31 03:34:46;;;;;;;5.20;2.20;;;1.80;66.60;;;;;;602578;234;26592;-71
2022/03/31 03:37:13;;;;;;;2.90;2.40;;;1.80;66.90;;;;;;602779;237;26829;-70
2022/03/31 03:39:41;;;;;;;2.78;2.33;;;1.80;67.90;;;;;;606531;236;26598;-70
2022/03/31 03:42:09;;;;;;;4.87;2.58;;;1.70;66.20;;;;;;603263;237;26629;-70
2022/03/31 03:44:36;;;;;;;2.55;2.10;;;1.60;66.00;;;;;;601982;239;26585;-70
2022/03/31 03:47:03;;;;;;;3.00;2.30;;;1.60;69.70;;;;;;605096;235;26599;-70
2022/03/31 03:49:30;;;;;;;2.50;2.30;;;1.60;65.30;;;;;;608471;236;26644;-70
2022/03/31 03:51:58;;;;;;;2.67;2.03;;;1.60;65.00;;;;;;607588;236;26833;-70
2022/03/31 03:54:27;;;;;;;3.22;2.40;;;1.60;65.10;;;;;;608586;233;26827;-70
2022/03/31 03:56:53;;;;;;;2.58;2.00;;;1.60;68.20;;;;;;607047;234;26599;-70
2022/03/31 03:59:20;;;;;;;2.58;2.37;;;1.60;66.00;;;;;;604105;235;26727;-70
2022/03/31 04:01:48;;;;;;;3.10;2.17;;;1.60;69.60;;;;;;607216;235;26578;-70
2022/03/31 04:04:16;;;;;;;2.35;2.17;;;1.60;69.80;;;;;;612039;235;26641;-70
2022/03/31 04:06:43;;;;;;;2.30;2.10;;;1.50;70.10;;;;;;601888;236;27104;-70
2022/03/31 04:09:11;;;;;;;2.40;2.20;;;1.50;66.40;;;;;;609448;235;26603;-70
2022/03/31 04:11:39;;;;;;;2.22;2.03;;;1.50;68.80;;;;;;606532;236;26678;-70
2022/03/31 04:14:07;;;;;;;2.97;2.00;;;1.50;69.40;;;;;;604563;238;26583;-70
2022/03/31 04:16:34;;;;;;;2.95;2.42;;;1.50;69.20;;;;;;609155;236;26883;-71
2022/03/31 04:19:01;;;;;;;2.05;1.92;;;1.50;70.70;;;;;;609884;235;26675;-70
2022/03/31 04:21:28;;;;;;;5.55;2.20;;;1.50;71.90;;;;;;608187;235;27171;-70
2022/03/31 04:23:56;;;;;;;3.25;2.42;;;1.40;68.20;;;;;;604424;236;26558;-70
2022/03/31 04:26:24;;;;;;;2.62;2.40;;;1.40;67.30;;;;;;608816;235;26619;-70
2022/03/31 04:28:51;;;;;;;2.25;2.15;;;1.40;67.40;;;;;;603871;232;26594;-71
2022/03/31 04:31:19;;;;;;;2.83;2.08;;;1.30;69.20;;;;;;601683;238;26645;-70
2022/03/31 04:33:46;;;;;;;4.72;2.00;;;1.30;65.90;;;;;;603268;236;26827;-70
2022/03/31 04:36:13;;;;;;;2.55;2.10;;;1.30;67.60;;;;;;601512;238;26645;-70
2022/03/31 04:38:40;;;;;;;2.58;2.12;;;1.30;67.40;;;;;;605000;236;27231;-70
2022/03/31 04:41:08;;;;;;;2.50;2.30;;;1.20;65.50;;;;;;608753;234;26631;-71
2022/03/31 04:43:36;;;;;;;2.53;2.17;;;1.20;67.70;;;;;;603740;234;26630;-71
2022/03/31 04:46:03;;;;;;;2.40;1.90;;;1.20;67.70;;;;;;606741;234;26696;-71
2022/03/31 04:48:33;;;;;;;2.97;2.00;;;1.20;66.30;;;;;;605087;235;26581;-71
2022/03/31 04:50:58;;;;;;;2.65;2.28;;;1.20;67.60;;;;;;602081;239;26831;-71
2022/03/31 04:53:25;;;;;;;2.92;2.30;;;1.30;67.00;;;;;;602754;236;26564;-71
2022/03/31 04:55:52;;;;;;;2.37;2.17;;;1.20;68.00;;;;;;607687;236;26864;-71
2022/03/31 04:58:20;;;;;;;2.28;2.08;;;1.30;67.60;;;;;;602367;236;26588;-69
2022/03/31 05:00:47;;;;;;;2.10;2.00;;;1.20;68.30;;;;;;601818;236;26832;-70
2022/03/31 05:03:15;;;;;;;3.55;1.95;;;1.30;66.90;;;;;;601971;238;26589;-70
2022/03/31 05:05:43;;;;;;;2.40;2.08;;;1.30;64.00;;;;;;605203;233;26607;-70
2022/03/31 05:08:10;;;;;;;2.35;2.10;;;1.30;63.90;;;;;;603075;235;26593;-70
2022/03/31 05:10:37;;;;;;;2.10;1.83;;;1.30;66.10;;;;;;608795;235;26632;-70
2022/03/31 05:13:06;;;;;;;2.95;1.85;;;1.30;74.20;;;;;;604031;236;26610;-70
2022/03/31 05:15:33;;;;;;;2.30;2.08;;;1.20;73.00;;;;;;602733;234;26871;-70
2022/03/31 05:18:00;;;;;;;2.30;2.10;;;1.20;67.90;;;;;;601711;236;26632;-70
2022/03/31 05:20:28;;;;;;;2.47;2.22;;;1.20;69.50;;;;;;607984;236;26973;-70
2022/03/31 05:22:56;;;;;;;2.22;2.03;;;1.20;73.00;;;;;;607685;231;26582;-70
2022/03/31 05:25:25;;;;;;;3.92;2.10;;;1.30;67.60;;;;;;601658;236;26658;-70
2022/03/31 05:27:51;;;;;;;2.50;2.30;;;1.20;67.50;;;;;;605460;236;26595;-70
2022/03/31 05:30:19;;;;;;;1.70;1.60;;;1.40;66.10;;;;;;607343;235;26599;-70
2022/03/31 05:32:46;;;;;;;3.47;2.03;;;1.40;65.40;;;;;;603774;235;26827;-70
2022/03/31 05:35:13;;;;;;;3.12;1.98;;;1.30;67.20;;;;;;602992;234;26609;-69
2022/03/31 05:37:40;;;;;;;2.83;2.03;;;1.40;66.70;;;;;;604621;238;26746;-70
2022/03/31 05:40:09;;;;;;;2.25;2.05;;;1.40;67.70;;;;;;602266;237;26613;-70
2022/03/31 05:42:37;;;;;;;2.28;2.05;;;1.40;67.50;;;;;;601566;237;26688;-71
2022/03/31 05:45:04;;;;;;;2.58;1.95;;;1.50;70.00;;;;;;601490;237;26892;-70
2022/03/31 05:47:32;;;;;;;2.08;1.87;;;1.50;64.50;;;;;;601586;239;26616;-70
2022/03/31 05:49:59;;;;;;;2.65;2.03;;;1.60;66.00;;;;;;602370;237;26872;-70
2022/03/31 05:52:27;;;;;;;2.03;1.83;;;1.70;66.90;;;;;;605599;237;26633;-69
2022/03/31 05:54:55;;;;;;;1.95;1.85;;;1.70;66.40;;;;;;605611;236;26598;-70
2022/03/31 05:57:22;;;;;;;1.90;1.80;;;1.70;66.30;;;;;;604552;234;26582;-70
2022/03/31 05:59:49;;;;;;;2.50;1.87;;;1.70;68.60;;;;;;606168;233;26641;-69
2022/03/31 06:02:17;;;;;;;3.37;1.60;;;1.70;67.00;;;;;;605972;236;26886;-68
2022/03/31 06:04:44;;;;;;;4.00;1.92;;;1.70;67.20;;;;;;609804;236;26793;-68
2022/03/31 06:07:12;;;;;;;70.03;11.57;;;1.70;66.70;;;;;;605370;235;26577;-69
2022/03/31 06:09:40;;;;;;;87.30;17.10;;;1.70;73.40;;;;;;602066;238;26585;-68
2022/03/31 06:12:09;;;;;;;86.22;14.95;;;1.80;70.00;;;;;;604392;235;26609;-68
2022/03/31 06:14:36;;;;;;;28.92;6.05;;;1.70;69.60;;;;;;602215;238;26558;-71
2022/03/31 06:17:04;;;;;;;72.60;9.75;;;1.70;64.40;;;;;;598606;238;26866;-69
2022/03/31 06:19:32;;;;;;;23.23;5.85;;;1.70;64.50;;;;;;606076;236;26826;-69
2022/03/31 06:21:59;;;;;;;7.20;2.60;;;1.70;65.80;;;;;;607704;236;26634;-70
2022/03/31 06:24:26;;;;;;;17.02;3.80;;;1.70;65.40;;;;;;606446;235;26580;-69
2022/03/31 06:26:57;;;;;;;11.48;3.97;;;1.70;62.20;;;;;;608442;232;26668;-70
2022/03/31 06:29:21;;;;;;;2.37;2.08;;;1.70;62.10;;;;;;609890;235;26589;-70
2022/03/31 06:31:50;;;;;;;23.27;4.62;;;1.70;66.60;;;;;;612034;234;26630;-69
2022/03/31 06:34:17;;;;;;;2.08;1.67;;;1.70;66.80;;;;;;611969;235;26639;-69
2022/03/31 06:36:44;;;;;;;1.65;1.55;;;1.80;62.70;;;;;;610224;235;26662;-69
2022/03/31 06:39:11;;;;;;;2.50;1.80;;;1.80;64.70;;;;;;608141;235;26817;-69
2022/03/31 06:41:38;;;;;;;6.25;2.20;;;1.90;68.40;;;;;;603029;236;26589;-68
2022/03/31 06:44:08;;;;;;;1.83;1.70;;;1.90;60.70;;;;;;607377;235;26912;-69
2022/03/31 06:46:34;;;;;;;4.15;1.75;;;2.10;62.50;;;;;;602648;236;26614;-70
2022/03/31 06:49:00;;;;;;;3.08;1.98;;;2.10;62.50;;;;;;602914;232;26617;-70
2022/03/31 06:51:28;;;;;;;2.75;1.87;;;2.20;64.10;;;;;;604747;236;26550;-70
2022/03/31 06:53:57;;;;;;;9.68;2.95;;;2.30;61.40;;;;;;604826;236;26864;-69
2022/03/31 06:56:23;;;;;;;12.68;3.00;;;2.40;63.30;;;;;;606692;236;26665;-69
2022/03/31 06:58:49;;;;;;;2.53;2.00;;;2.40;60.60;;;;;;610384;235;26869;-69
2022/03/31 07:01:18;;;;;;;3.65;1.60;;;2.60;62.40;;;;;;604637;235;26640;-69
2022/03/31 07:03:46;;;;;;;3.70;1.98;;;2.60;66.40;;;;;;605771;236;26611;-71
2022/03/31 07:06:14;;;;;;;3.47;2.12;;;2.80;63.10;;;;;;605315;233;26636;-70
2022/03/31 07:08:42;;;;;;;6.30;2.37;;;2.80;65.40;;;;;;605394;237;26563;-73
2022/03/31 07:11:10;;;;;;;2.92;1.90;;;2.90;62.70;;;;;;605279;236;26612;-72
2022/03/31 07:13:37;;;;;;;6.05;2.28;;;2.80;62.60;;;;;;605179;237;26874;-70
2022/03/31 07:16:05;;;;;;;2.50;2.22;;;2.90;62.00;;;;;;605129;233;26668;-71
2022/03/31 07:18:32;;;;;;;398.25;39.50;;;3.00;62.30;;;;;;605190;237;26856;-71
2022/03/31 07:20:59;;;;;;;1999.90;207.00;;;3.20;62.80;;;;;;604925;237;26583;-72
2022/03/31 07:23:26;;;;;;;1331.10;117.00;;;3.20;62.30;;;;;;604924;237;26815;-69
2022/03/31 07:25:53;;;;;;;19.90;5.28;;;3.30;58.60;;;;;;604751;235;26610;-73
2022/03/31 07:28:22;;;;;;;16.65;4.80;;;3.40;60.90;;;;;;603399;233;26594;-74
2022/03/31 07:30:50;;;;;;;4.80;2.55;;;3.50;59.60;;;;;;609635;236;26653;-73
2022/03/31 07:33:17;;;;;;;19.15;5.30;;;3.50;59.40;;;;;;604817;235;26922;-73
2022/03/31 07:35:44;;;;;;;27.20;7.25;;;3.60;59.30;;;;;;603060;237;26614;-72
2022/03/31 07:38:11;;;;;;;8.93;4.37;;;3.60;63.50;;;;;;604995;237;26838;-72
2022/03/31 07:40:38;;;;;;;14.52;4.15;;;3.60;58.10;;;;;;602331;237;26623;-72
2022/03/31 07:43:06;;;;;;;10.88;4.97;;;3.80;63.40;;;;;;603967;237;27137;-72
2022/03/31 07:45:34;;;;;;;12.93;4.80;;;4.00;61.40;;;;;;603484;237;26656;-72
2022/03/31 07:48:02;;;;;;;8.18;3.40;;;4.00;61.20;;;;;;602801;238;26886;-72
2022/03/31 07:50:30;;;;;;;14.65;5.03;;;4.10;59.30;;;;;;608080;236;26640;-72
2022/03/31 07:52:58;;;;;;;7.15;2.97;;;4.10;59.20;;;;;;603377;236;26647;-73
2022/03/31 07:55:25;;;;;;;17.60;6.28;;;4.10;64.60;;;;;;609596;235;26982;-72
2022/03/31 07:57:52;;;;;;;14.82;5.68;;;4.20;62.20;;;;;;609598;236;26634;-73
2022/03/31 08:00:20;;;;;;;6.07;3.17;;;4.10;64.80;;;;;;609957;236;26997;-72
2022/03/31 08:02:46;;;;;;;8.23;4.15;;;4.20;58.30;;;;;;609863;235;26585;-72
2022/03/31 08:05:16;;;;;;;5.62;3.12;;;4.40;62.50;;;;;;609831;236;27253;-73
2022/03/31 08:07:43;;;;;;;2.97;2.22;;;4.40;63.00;;;;;;609516;236;26623;-73
2022/03/31 08:10:10;;;;;;;2.10;1.90;;;4.40;64.90;;;;;;609907;236;26634;-72
2022/03/31 08:12:40;;;;;;;3.90;2.10;;;4.50;58.50;;;;;;610398;233;26611;-71
2022/03/31 08:15:07;;;;;;;3.83;2.92;;;4.70;58.60;;;;;;611330;234;26825;-71
2022/03/31 08:17:34;;;;;;;2.78;2.30;;;4.80;62.90;;;;;;610994;235;26610;-71
2022/03/31 08:20:01;;;;;;;3.40;1.90;;;4.90;61.60;;;;;;610768;230;26821;-71
2022/03/31 08:22:29;;;;;;;1.90;1.80;;;5.00;56.40;;;;;;610623;235;26576;-71
2022/03/31 08:24:57;;;;;;;2.62;2.42;;;5.10;57.20;;;;;;610458;231;26595;-71
2022/03/31 08:27:24;;;;;;;4.55;2.65;;;5.10;57.10;;;;;;610494;236;26831;-71
2022/03/31 08:29:51;;;;;;;4.72;2.50;;;5.20;55.10;;;;;;610499;236;26684;-72
2022/03/31 08:32:19;;;;;;;2.35;2.12;;;5.20;63.00;;;;;;610173;236;26922;-71
2022/03/31 08:34:46;;;;;;;2.58;2.03;;;5.30;62.00;;;;;;610188;235;26642;-71
2022/03/31 08:37:14;;;;;;;2.70;2.05;;;5.50;61.50;;;;;;610494;236;26618;-71
2022/03/31 08:39:41;;;;;;;4.90;2.15;;;5.60;59.40;;;;;;610413;235;26638;-71
2022/03/31 08:42:10;;;;;;;2.95;2.62;;;5.50;58.30;;;;;;610195;231;26641;-71
2022/03/31 08:44:36;;;;;;;2.30;2.10;;;5.50;58.00;;;;;;610108;236;26971;-71
2022/03/31 08:47:03;;;;;;;4.15;2.00;;;5.70;59.60;;;;;;610214;235;26680;-71
2022/03/31 08:49:31;;;;;;;2.20;1.85;;;5.80;56.60;;;;;;609965;236;26587;-71
2022/03/31 08:51:59;;;;;;;3.53;2.10;;;6.10;54.60;;;;;;609786;236;26569;-71
2022/03/31 08:54:26;;;;;;;3.78;2.00;;;6.10;54.60;;;;;;609847;236;26815;-71
2022/03/31 08:56:54;;;;;;;3.17;1.90;;;6.20;58.70;;;;;;609874;235;26618;-71
2022/03/31 08:59:21;;;;;;;3.75;2.17;;;6.30;58.40;;;;;;609868;235;26588;-71
2022/03/31 09:01:48;;;;;;;1.98;1.83;;;6.50;56.20;;;;;;609876;235;26823;-71
2022/03/31 09:04:19;;;;;;;2.58;2.20;;;6.50;55.70;;;;;;609898;235;26585;-71
2022/03/31 09:06:46;;;;;;;1.80;1.70;;;6.60;57.10;;;;;;609886;236;26671;-71
2022/03/31 09:09:14;;;;;;;2.28;2.08;;;6.70;55.10;;;;;;609887;235;26971;-71
2022/03/31 09:11:41;;;;;;;2.05;1.73;;;6.70;55.30;;;;;;609877;236;26577;-71
2022/03/31 09:14:07;;;;;;;3.97;2.37;;;6.70;54.30;;;;;;609808;235;26580;-71
2022/03/31 09:16:36;;;;;;;2.25;1.70;;;6.70;55.30;;;;;;609938;236;26653;-71
2022/03/31 09:19:03;;;;;;;2.08;1.87;;;6.70;55.10;;;;;;609906;235;26599;-71
2022/03/31 09:21:31;;;;;;;1.98;1.87;;;6.70;53.90;;;;;;609869;236;26600;-71
2022/03/31 09:23:58;;;;;;;2.95;2.65;;;6.70;54.50;;;;;;610135;233;26584;-70
2022/03/31 09:26:31;;;;;;;2.00;1.90;;;6.70;55.60;;;;;;611435;234;27227;-70
2022/03/31 09:28:55;;;;;;;4.47;2.45;;;6.80;54.50;;;;;;610934;235;26627;-65
2022/03/31 09:31:25;;;;;;;6.57;3.22;;;6.80;54.60;;;;;;610799;235;26599;-65
2022/03/31 09:33:55;;;;;;;2.95;2.00;;;6.90;56.80;;;;;;610628;235;26857;-66
2022/03/31 09:36:22;;;;;;;4.93;2.05;;;6.80;58.10;;;;;;610436;235;26596;-66
2022/03/31 09:38:54;;;;;;;2.47;1.87;;;6.80;54.60;;;;;;610340;236;26581;-65
2022/03/31 09:41:22;;;;;;;5.12;2.87;;;6.80;54.60;;;;;;610799;235;26798;-65
2022/03/31 09:43:50;;;;;;;3.85;3.55;;;6.90;60.70;;;;;;610532;235;26601;-65
2022/03/31 09:46:19;;;;;;;5.60;3.00;;;7.00;54.10;;;;;;610514;235;26637;-65
2022/03/31 09:48:48;;;;;;;6.32;3.15;;;7.00;58.40;;;;;;610582;236;26627;-65
2022/03/31 09:51:14;;;;;;;2.90;2.70;;;7.20;57.50;;;;;;610517;236;26828;-65
2022/03/31 09:53:42;;;;;;;3.62;2.15;;;7.40;54.60;;;;;;610535;235;26611;-65
2022/03/31 09:56:09;;;;;;;2.80;2.60;;;7.40;54.60;;;;;;610550;236;26641;-64
2022/03/31 09:58:36;;;;;;;3.55;2.80;;;7.50;56.70;;;;;;610238;236;26888;-65
2022/03/31 10:01:06;;;;;;;3.58;2.70;;;7.40;56.00;;;;;;609945;235;26553;-65
2022/03/31 10:03:33;;;;;;;3.10;2.33;;;7.50;56.00;;;;;;609881;236;27242;-66
2022/03/31 10:06:00;;;;;;;2.53;2.33;;;7.50;54.10;;;;;;609842;235;26614;-66
2022/03/31 10:08:27;;;;;;;3.12;2.70;;;7.50;55.90;;;;;;609860;235;26831;-66
2022/03/31 10:10:55;;;;;;;3.05;2.67;;;7.60;56.10;;;;;;609806;235;26557;-66
2022/03/31 10:13:23;;;;;;;6.57;3.50;;;7.70;56.10;;;;;;609940;236;26633;-65
2022/03/31 10:15:56;;;;;;;2.78;2.58;;;7.70;55.90;;;;;;609755;235;26875;-66
2022/03/31 10:18:24;;;;;;;5.12;3.67;;;7.70;54.60;;;;;;609796;235;26589;-66
2022/03/31 10:20:52;;;;;;;3.17;2.53;;;7.80;58.00;;;;;;609884;235;27240;-66
2022/03/31 10:25:52;;;;;;;3.35;2.75;;;8.10;56.30;;;;;;609910;235;26608;-66
2022/03/31 10:28:22;;;;;;;2.97;2.67;;;8.20;55.20;;;;;;609965;236;26588;-66
2022/03/31 10:30:53;;;;;;;3.05;2.85;;;8.30;55.60;;;;;;609969;235;26588;-65
2022/03/31 10:33:29;;;;;;;2.72;2.53;;;8.30;55.40;;;;;;609723;236;26587;-65
2022/03/31 10:36:01;;;;;;;3.05;2.65;;;8.20;52.50;;;;;;610529;233;26666;-65
2022/03/31 10:38:33;;;;;;;3.45;3.15;;;8.20;54.00;;;;;;611216;234;26560;-65
2022/03/31 10:41:00;;;;;;;2.10;2.00;;;8.20;53.90;;;;;;610900;235;26850;-66
2022/03/31 10:43:28;;;;;;;3.40;2.70;;;8.20;56.00;;;;;;610771;235;26572;-64
2022/03/31 10:45:57;;;;;;;2.87;2.67;;;8.20;57.50;;;;;;610479;235;26847;-65
2022/03/31 10:48:26;;;;;;;2.37;2.25;;;8.40;55.10;;;;;;610355;236;26616;-65
2022/03/31 10:51:04;;;;;;;3.30;2.92;;;8.40;55.60;;;;;;610364;236;26591;-65
2022/03/31 10:53:31;;;;;;;2.37;2.17;;;8.50;56.90;;;;;;610457;236;26813;-65
2022/03/31 10:55:58;;;;;;;2.25;1.77;;;8.70;54.70;;;;;;610046;235;26651;-65
2022/03/31 10:58:28;;;;;;;5.55;2.60;;;8.80;53.70;;;;;;610177;235;26860;-65
2022/03/31 11:00:56;;;;;;;2.47;2.28;;;8.90;52.80;;;;;;610131;236;26861;-65
2022/03/31 11:03:24;;;;;;;1.75;1.65;;;8.90;52.50;;;;;;610129;236;26835;-64
2022/03/31 11:05:52;;;;;;;3.55;2.30;;;8.90;52.80;;;;;;610178;235;26655;-65
2022/03/31 11:08:19;;;;;;;2.67;2.00;;;8.90;54.60;;;;;;610201;236;26629;-64
2022/03/31 11:10:49;;;;;;;2.40;2.20;;;8.90;54.60;;;;;;610160;236;26671;-65
2022/03/31 11:13:16;;;;;;;2.53;2.30;;;8.90;54.40;;;;;;609848;236;26578;-65
2022/03/31 11:15:44;;;;;;;4.35;2.58;;;9.10;50.70;;;;;;610141;235;26647;-65
2022/03/31 11:18:11;;;;;;;2.72;2.20;;;9.00;50.60;;;;;;610222;235;26787;-65
2022/03/31 11:20:38;;;;;;;1.98;1.87;;;9.00;56.50;;;;;;610266;235;26794;-65
2022/03/31 11:23:07;;;;;;;3.45;2.72;;;9.00;53.70;;;;;;610279;235;26601;-65
2022/03/31 11:25:35;;;;;;;2.53;2.22;;;9.10;52.10;;;;;;610203;236;26823;-65
2022/03/31 11:28:12;;;;;;;3.28;2.10;;;9.20;50.80;;;;;;609976;235;26579;-65
2022/03/31 11:30:38;;;;;;;2.83;2.62;;;9.20;53.00;;;;;;609800;235;26589;-65
2022/03/31 11:33:09;;;;;;;2.62;2.17;;;9.30;52.00;;;;;;609929;235;27248;-64
2022/03/31 11:35:33;;;;;;;2.08;1.98;;;9.30;56.00;;;;;;609641;236;26617;-66
2022/03/31 11:38:01;;;;;;;2.58;2.37;;;9.40;54.10;;;;;;609804;236;26577;-66
2022/03/31 11:40:29;;;;;;;3.10;2.10;;;9.40;53.90;;;;;;609858;236;26592;-66
2022/03/31 11:42:57;;;;;;;2.37;1.90;;;9.30;50.80;;;;;;609753;236;26602;-66
2022/03/31 11:45:27;;;;;;;3.28;2.58;;;9.40;52.30;;;;;;609822;231;26621;-66
2022/03/31 11:47:55;;;;;;;3.58;2.12;;;9.40;52.20;;;;;;610760;234;26669;-66
2022/03/31 11:50:24;;;;;;;3.42;2.17;;;9.60;50.70;;;;;;611210;235;26592;-66
2022/03/31 11:52:52;;;;;;;3.35;2.45;;;9.60;50.60;;;;;;610789;230;26647;-65
2022/03/31 11:55:18;;;;;;;1.98;1.87;;;10.00;54.90;;;;;;610753;235;26599;-66
2022/03/31 11:57:51;;;;;;;2.78;2.20;;;10.50;54.10;;;;;;610567;235;26797;-65
2022/03/31 12:00:18;;;;;;;3.28;2.00;;;10.50;53.80;;;;;;610443;236;26584;-64
2022/03/31 12:03:09;;;;;;;3.35;2.10;;;10.80;49.30;;;;;;610518;236;26588;-65
2022/03/31 12:05:35;;;;;;;2.35;2.15;;;10.60;48.60;;;;;;610278;235;27243;-65
2022/03/31 12:08:03;;;;;;;3.33;2.20;;;10.50;50.40;;;;;;610221;236;26639;-65
2022/03/31 12:10:30;;;;;;;3.10;1.87;;;10.70;49.10;;;;;;610224;235;26635;-65
2022/03/31 12:12:58;;;;;;;2.08;1.98;;;11.10;50.50;;;;;;610223;235;26627;-65
2022/03/31 12:15:26;;;;;;;2.60;2.47;;;11.10;51.40;;;;;;610160;235;26630;-65
2022/03/31 12:18:00;;;;;;;2.30;2.10;;;11.20;48.60;;;;;;610234;235;26966;-65
2022/03/31 12:20:27;;;;;;;2.17;1.92;;;11.40;51.10;;;;;;610170;236;26877;-64
2022/03/31 12:22:54;;;;;;;2.50;2.28;;;11.60;49.70;;;;;;610030;235;26619;-64
2022/03/31 12:25:27;;;;;;;2.58;2.22;;;11.70;49.60;;;;;;609850;235;26613;-64
2022/03/31 12:27:54;;;;;;;2.53;2.33;;;11.80;52.20;;;;;;609932;234;26560;-65
2022/03/31 12:30:21;;;;;;;2.30;2.10;;;11.90;51.10;;;;;;609920;235;26634;-65
2022/03/31 12:32:49;;;;;;;2.28;2.08;;;11.90;50.00;;;;;;609915;235;26629;-65
2022/03/31 12:35:16;;;;;;;2.55;2.35;;;11.80;54.60;;;;;;609844;235;26868;-65
2022/03/31 12:37:45;;;;;;;2.22;1.90;;;11.90;48.50;;;;;;609883;236;26590;-65
2022/03/31 12:40:11;;;;;;;2.67;2.05;;;11.90;46.90;;;;;;609732;236;26830;-65
2022/03/31 12:42:38;;;;;;;2.20;2.10;;;11.60;48.60;;;;;;609875;236;26596;-66
2022/03/31 12:45:11;;;;;;;3.80;3.50;;;11.50;47.10;;;;;;609805;235;26620;-66
2022/03/31 12:47:39;;;;;;;2.12;2.03;;;11.50;45.80;;;;;;609853;235;26786;-66
2022/03/31 12:50:14;;;;;;;2.97;2.72;;;11.00;46.00;;;;;;609721;236;26613;-65
2022/03/31 12:52:41;;;;;;;2.08;1.77;;;10.90;46.50;;;;;;610254;235;26596;-65
2022/03/31 12:55:08;;;;;;;3.08;2.83;;;10.90;47.70;;;;;;609529;236;26572;-65
2022/03/31 12:57:35;;;;;;;2.85;2.65;;;10.90;50.00;;;;;;610174;235;26557;-66
2022/03/31 13:00:08;;;;;;;2.20;2.00;;;11.20;47.60;;;;;;611486;233;26930;-65
2022/03/31 13:02:35;;;;;;;1.70;1.60;;;11.40;46.30;;;;;;611457;235;26561;-65